createdAt,value
2022-11-28T00:01:59.060Z,22.30
2022-11-28T00:07:02.227Z,19.50
2022-11-28T00:12:06.661Z,21.00
2022-11-28T00:17:09.770Z,19.80
2022-11-28T00:22:13.081Z,18.40
2022-11-28T00:27:16.385Z,15.70
2022-11-28T00:32:19.597Z,22.40
2022-11-28T00:37:22.811Z,20.30
2022-11-28T00:42:26.020Z,17.60
2022-11-28T00:47:29.126Z,12.40
2022-11-28T00:52:33.844Z,14.80
2022-11-28T00:57:37.069Z,12.40
2022-11-28T01:02:40.218Z,12.10
2022-11-28T01:07:43.908Z,13.10
2022-11-28T01:12:47.324Z,12.60
2022-11-28T01:17:50.521Z,17.90
2022-11-28T01:22:53.624Z,20.10
2022-11-28T01:27:56.835Z,14.10
2022-11-28T01:33:00.040Z,12.00
2022-11-28T01:38:03.354Z,10.00
2022-11-28T01:43:06.576Z,10.80
2022-11-28T01:48:16.028Z,10.20
2022-11-28T01:53:19.984Z,10.10
2022-11-28T01:58:25.701Z,10.50
2022-11-28T02:03:45.610Z,15.10
2022-11-28T02:08:54.487Z,13.90
2022-11-28T02:14:34.830Z,13.60
2022-11-28T02:20:15.824Z,9.90
2022-11-28T02:25:30.834Z,11.10
2022-11-28T02:31:33.815Z,11.20
2022-11-28T02:36:51.825Z,10.50
2022-11-28T02:42:28.992Z,9.20
2022-11-28T02:47:43.970Z,13.30
2022-11-28T02:52:57.741Z,12.30
2022-11-28T02:58:01.035Z,8.40
2022-11-28T03:03:30.093Z,7.30
2022-11-28T03:08:55.989Z,6.70
2022-11-28T03:14:34.429Z,5.50
2022-11-28T03:24:58.554Z,13.60
2022-11-28T03:30:19.892Z,20.60
2022-11-28T03:35:30.824Z,16.50
2022-11-28T03:40:42.388Z,8.70
2022-11-28T03:45:51.993Z,17.10
2022-11-28T03:51:16.959Z,7.10
2022-11-28T03:56:46.498Z,11.50
2022-11-28T04:02:30.045Z,13.50
2022-11-28T04:07:33.320Z,29.50
2022-11-28T04:13:04.316Z,12.70
2022-11-28T04:18:30.676Z,8.00
2022-11-28T04:23:40.266Z,10.10
2022-11-28T04:28:54.133Z,7.50
2022-11-28T04:34:03.702Z,10.80
2022-11-28T04:39:14.976Z,11.50
2022-11-28T04:44:49.673Z,10.40
2022-11-28T04:49:55.145Z,7.80
2022-11-28T04:55:17.197Z,8.60
2022-11-28T05:00:22.547Z,6.50
2022-11-28T05:05:28.658Z,8.90
2022-11-28T05:10:31.728Z,10.50
2022-11-28T05:15:35.313Z,10.50
2022-11-28T05:20:39.600Z,7.30
2022-11-28T05:25:42.801Z,9.40
2022-11-28T05:30:45.804Z,8.90
2022-11-28T05:35:49.316Z,8.20
2022-11-28T05:40:52.425Z,9.10
2022-11-28T05:45:56.941Z,12.50
2022-11-28T05:51:00.372Z,10.50
2022-11-28T05:56:14.737Z,10.10
2022-11-28T06:01:22.762Z,7.70
2022-11-28T06:06:29.663Z,8.20
2022-11-28T06:11:35.040Z,9.50
2022-11-28T06:16:38.265Z,7.60
2022-11-28T06:21:41.441Z,9.30
2022-11-28T06:26:44.641Z,12.80
2022-11-28T06:31:48.788Z,14.20
2022-11-28T06:36:52.010Z,10.80
2022-11-28T06:41:55.187Z,8.30
2022-11-28T06:46:58.293Z,8.80
2022-11-28T06:52:01.875Z,7.00
2022-11-28T06:57:05.018Z,10.00
2022-11-28T07:02:08.367Z,12.30
2022-11-28T07:07:16.141Z,10.20
2022-11-28T07:12:19.967Z,11.20
2022-11-28T07:17:23.278Z,12.80
2022-11-28T07:22:26.385Z,20.60
2022-11-28T07:27:29.699Z,17.50
2022-11-28T07:32:32.906Z,11.40
2022-11-28T07:37:36.527Z,12.60
2022-11-28T07:42:39.744Z,13.60
2022-11-28T07:47:43.158Z,10.30
2022-11-28T07:52:46.262Z,18.20
2022-11-28T07:57:49.462Z,21.20
2022-11-28T08:02:52.672Z,10.00
2022-11-28T08:07:56.154Z,8.30
2022-11-28T08:12:59.608Z,6.60
2022-11-28T08:18:03.545Z,11.80
2022-11-28T08:23:06.731Z,7.90
2022-11-28T08:28:09.849Z,9.90
2022-11-28T08:33:14.068Z,13.30
2022-11-28T08:38:17.183Z,11.50
2022-11-28T08:43:20.589Z,15.80
2022-11-28T08:48:23.696Z,17.40
2022-11-28T08:53:27.317Z,19.40
2022-11-28T08:58:30.523Z,36.70
2022-11-28T09:03:33.698Z,13.20
2022-11-28T09:08:36.939Z,12.60
2022-11-28T09:13:40.253Z,9.50
2022-11-28T09:18:43.617Z,11.00
2022-11-28T09:23:46.869Z,14.50
2022-11-28T09:28:50.941Z,21.50
2022-11-28T09:33:54.622Z,9.30
2022-11-28T09:39:01.408Z,11.80
2022-11-28T09:44:30.946Z,8.90
2022-11-28T09:49:55.479Z,9.30
2022-11-28T09:55:07.919Z,9.30
2022-11-28T10:00:24.093Z,7.00
2022-11-28T10:05:56.685Z,10.60
2022-11-28T10:11:19.627Z,7.10
2022-11-28T10:16:25.919Z,12.90
2022-11-28T10:21:44.004Z,12.50
2022-11-28T10:26:54.782Z,15.00
2022-11-28T10:32:03.732Z,8.80
2022-11-28T10:37:15.164Z,11.10
2022-11-28T10:42:22.018Z,11.30
2022-11-28T10:47:56.466Z,11.20
2022-11-28T10:53:11.868Z,9.90
2022-11-28T10:58:40.350Z,13.50
2022-11-28T11:03:43.676Z,11.10
2022-11-28T11:08:48.509Z,12.10
2022-11-28T11:14:11.080Z,11.40
2022-11-28T11:19:30.545Z,8.10
2022-11-28T11:24:33.879Z,13.70
2022-11-28T11:29:38.310Z,17.40
2022-11-28T11:34:46.523Z,13.50
2022-11-28T11:39:52.940Z,12.30
2022-11-28T11:44:57.933Z,15.70
2022-11-28T11:50:06.436Z,16.00
2022-11-28T11:55:18.530Z,12.00
2022-11-28T12:00:36.068Z,17.60
2022-11-28T12:06:13.165Z,27.00
2022-11-28T12:11:30.749Z,14.50
2022-11-28T12:17:40.532Z,18.40
2022-11-28T12:23:11.840Z,15.10
2022-11-28T12:29:10.577Z,18.40
2022-11-28T12:34:38.674Z,25.30
2022-11-28T12:39:59.890Z,19.80
2022-11-28T12:45:40.475Z,20.10
2022-11-28T12:50:49.895Z,16.70
2022-11-28T12:56:45.763Z,21.90
2022-11-28T13:02:01.373Z,20.70
2022-11-28T13:07:12.256Z,15.80
2022-11-28T13:13:01.000Z,16.10
2022-11-28T13:23:34.919Z,22.20
2022-11-28T13:29:08.616Z,27.00
2022-11-28T13:34:18.474Z,15.70
2022-11-28T13:39:27.731Z,16.10
2022-11-28T13:44:51.491Z,22.10
2022-11-28T13:50:25.884Z,27.60
2022-11-28T13:55:47.121Z,30.20
2022-11-28T14:01:05.868Z,32.50
2022-11-28T14:11:41.875Z,32.90
2022-11-28T14:17:14.395Z,21.90
2022-11-28T14:23:04.067Z,18.30
2022-11-28T14:28:28.983Z,18.60
2022-11-28T14:33:42.784Z,15.30
2022-11-28T14:38:47.689Z,19.80
2022-11-28T14:43:50.934Z,22.50
2022-11-28T14:48:59.972Z,15.50
2022-11-28T14:54:03.466Z,29.30
2022-11-28T14:59:12.326Z,34.00
2022-11-28T15:04:47.594Z,27.00
2022-11-28T15:10:04.110Z,25.50
2022-11-28T15:15:14.437Z,23.20
2022-11-28T15:20:32.032Z,28.20
2022-11-28T15:25:38.636Z,25.70
2022-11-28T15:30:57.577Z,18.60
2022-11-28T15:36:13.286Z,25.10
2022-11-28T15:41:25.601Z,17.20
2022-11-28T15:46:34.855Z,22.20
2022-11-28T15:51:38.054Z,22.20
2022-11-28T15:56:57.666Z,17.10
2022-11-28T16:02:22.958Z,21.40
2022-11-28T16:07:27.048Z,19.60
2022-11-28T16:12:30.513Z,21.90
2022-11-28T16:17:35.052Z,19.90
2022-11-28T16:22:38.674Z,16.20
2022-11-28T16:27:45.875Z,16.00
2022-11-28T16:32:55.598Z,22.90
2022-11-28T16:38:26.499Z,16.90
2022-11-28T16:43:40.658Z,17.40
2022-11-28T16:48:59.386Z,24.60
2022-11-28T16:59:33.604Z,15.70
2022-11-28T17:04:37.044Z,18.60
2022-11-28T17:09:42.925Z,22.30
2022-11-28T17:14:46.610Z,21.70
2022-11-28T17:19:50.807Z,19.10
2022-11-28T17:25:01.775Z,27.00
2022-11-28T17:30:06.164Z,23.10
2022-11-28T17:35:25.637Z,28.10
2022-11-28T17:40:34.805Z,18.70
2022-11-28T17:45:38.267Z,23.90
2022-11-28T17:50:42.243Z,22.20
2022-11-28T17:55:48.668Z,16.60
2022-11-28T18:00:57.359Z,22.30
2022-11-28T18:06:05.591Z,28.30
2022-11-28T18:11:12.088Z,22.90
2022-11-28T18:16:20.002Z,16.10
2022-11-28T18:21:23.208Z,16.50
2022-11-28T18:26:27.334Z,13.10
2022-11-28T18:31:31.274Z,23.50
2022-11-28T18:36:38.726Z,15.90
2022-11-28T18:41:42.693Z,16.20
2022-11-28T18:46:46.016Z,9.30
2022-11-28T18:51:49.420Z,20.00
2022-11-28T18:56:52.850Z,18.20
2022-11-28T19:01:56.316Z,19.50
2022-11-28T19:07:00.792Z,16.10
2022-11-28T19:12:04.911Z,20.20
2022-11-28T19:17:08.858Z,18.30
2022-11-28T19:22:12.149Z,17.60
2022-11-28T19:27:15.568Z,26.80
2022-11-28T19:32:18.877Z,18.40
2022-11-28T19:37:22.778Z,16.80
2022-11-28T19:42:26.118Z,18.60
2022-11-28T19:47:29.225Z,16.90
2022-11-28T19:52:32.634Z,20.70
2022-11-28T19:57:38.003Z,17.30
2022-11-28T20:02:41.246Z,15.60
2022-11-28T20:07:44.867Z,20.40
2022-11-28T20:12:50.484Z,16.90
2022-11-28T20:17:54.003Z,15.50
2022-11-28T20:22:57.927Z,16.70
2022-11-28T20:28:01.133Z,19.90
2022-11-28T20:33:04.243Z,14.20
2022-11-28T20:38:07.550Z,24.80
2022-11-28T20:43:13.740Z,23.00
2022-11-28T20:48:17.150Z,13.80
2022-11-28T20:53:26.402Z,15.40
2022-11-28T20:58:32.735Z,16.20
2022-11-28T21:03:37.346Z,17.60
2022-11-28T21:08:41.458Z,20.00
2022-11-28T21:13:45.194Z,13.60
2022-11-28T21:18:49.484Z,9.70
2022-11-28T21:23:57.112Z,10.70
2022-11-28T21:29:05.877Z,13.20
2022-11-28T21:39:20.629Z,15.00
2022-11-28T21:44:23.778Z,17.20
2022-11-28T21:49:26.976Z,14.90
2022-11-28T21:54:30.082Z,12.70
2022-11-28T21:59:33.232Z,11.20
2022-11-28T22:04:36.499Z,13.20
2022-11-28T22:09:39.914Z,7.40
2022-11-28T22:14:43.134Z,11.00
2022-11-28T22:19:46.329Z,11.60
2022-11-28T22:24:49.893Z,10.40
2022-11-28T22:29:53.185Z,10.50
2022-11-28T22:34:56.364Z,11.60
2022-11-28T22:39:59.517Z,10.90
2022-11-28T22:45:03.004Z,17.60
2022-11-28T22:50:07.564Z,14.20
2022-11-28T22:55:10.634Z,15.00
2022-11-28T23:00:18.191Z,15.30
2022-11-28T23:05:21.351Z,14.60
2022-11-28T23:10:24.599Z,11.70
2022-11-28T23:15:27.774Z,11.60
2022-11-28T23:20:30.981Z,12.40
2022-11-28T23:25:36.241Z,13.10
2022-11-28T23:30:39.373Z,17.10
2022-11-28T23:35:42.455Z,8.20
2022-11-28T23:40:45.550Z,8.10
2022-11-28T23:45:48.804Z,9.70
2022-11-28T23:50:52.812Z,9.20
2022-11-28T23:56:02.752Z,10.90
